Time;durP1;ratioP1;P1;durP2;ratioP2;P2;SDS_P1;SDS_P2;PMS_P1;PMS_P2;Temp;Humidity;BMP_temperature;BMP_pressure;BME280_temperature;BME280_humidity;BME280_pressure;Samples;Min_cycle;Max_cycle;Signal;HPM_P1;HPM_P2
2021/11/03 00:01:14;;;;;;;36.00;21.77;;;3.90;99.90;;;;;;5031815;28;20202;-60
2021/11/03 00:03:45;;;;;;;37.50;22.87;;;3.80;99.90;;;;;;5042054;28;20201;-61
2021/11/03 00:06:16;;;;;;;42.40;23.27;;;3.80;99.90;;;;;;5038779;28;20211;-61
2021/11/03 00:08:47;;;;;;;33.87;22.27;;;3.80;99.90;;;;;;5048074;28;20795;-60
2021/11/03 00:11:15;;;;;;;33.00;21.77;;;3.70;99.90;;;;;;5034405;28;20243;-61
2021/11/03 00:13:44;;;;;;;36.57;21.23;;;3.70;99.90;;;;;;5040528;28;20201;-61
2021/11/03 00:16:14;;;;;;;34.93;21.27;;;3.60;99.90;;;;;;5041135;28;20690;-60
2021/11/03 00:18:43;;;;;;;29.93;20.33;;;3.60;99.90;;;;;;5038868;28;20193;-60
2021/11/03 00:21:12;;;;;;;35.27;20.63;;;3.50;99.90;;;;;;5038499;28;20854;-61
2021/11/03 00:23:40;;;;;;;32.57;20.97;;;3.60;99.90;;;;;;5034609;28;20202;-60
2021/11/03 00:26:10;;;;;;;30.97;20.43;;;3.60;99.90;;;;;;5037131;28;20200;-61
2021/11/03 00:28:38;;;;;;;36.07;21.90;;;3.60;99.90;;;;;;5033428;28;20225;-61
2021/11/03 00:31:07;;;;;;;32.87;21.67;;;3.50;99.90;;;;;;5035761;28;20195;-61
2021/11/03 00:33:36;;;;;;;32.23;21.20;;;3.60;99.90;;;;;;5035888;28;20189;-61
2021/11/03 00:36:04;;;;;;;38.13;22.00;;;3.60;99.90;;;;;;5062397;28;20250;-61
2021/11/03 00:38:33;;;;;;;34.70;23.10;;;3.70;99.90;;;;;;5038806;28;20212;-61
2021/11/03 00:41:05;;;;;;;37.50;22.73;;;3.90;99.90;;;;;;5036323;28;20283;-60
2021/11/03 00:43:35;;;;;;;35.70;22.67;;;3.90;99.90;;;;;;5042402;28;20325;-61
2021/11/03 00:46:04;;;;;;;39.70;23.57;;;4.00;99.90;;;;;;5039599;28;20393;-61
2021/11/03 00:48:33;;;;;;;40.67;23.90;;;4.00;99.90;;;;;;5030908;28;20194;-61
2021/11/03 00:51:01;;;;;;;48.27;26.03;;;4.10;99.90;;;;;;5039627;28;20193;-61
2021/11/03 00:53:30;;;;;;;40.93;23.97;;;4.30;99.90;;;;;;5044341;28;20312;-61
2021/11/03 00:55:58;;;;;;;42.63;24.77;;;4.40;99.90;;;;;;5044781;28;20180;-61
2021/11/03 00:58:26;;;;;;;37.90;23.37;;;4.30;99.90;;;;;;5033439;28;20618;-61
2021/11/03 01:00:57;;;;;;;42.37;23.73;;;4.20;99.90;;;;;;5042052;28;20247;-61
2021/11/03 01:04:04;;;;;;;43.27;23.07;;;4.10;99.90;;;;;;5037510;28;20568;-61
2021/11/03 01:07:10;;;;;;;37.30;22.60;;;3.90;99.90;;;;;;5033622;28;20196;-61
2021/11/03 01:09:38;;;;;;;36.37;21.87;;;3.80;99.90;;;;;;5041026;28;20184;-61
2021/11/03 01:12:08;;;;;;;39.57;23.33;;;3.60;99.90;;;;;;5044122;28;20208;-61
2021/11/03 01:14:37;;;;;;;39.97;22.77;;;3.60;99.90;;;;;;5039719;28;20228;-61
2021/11/03 01:17:08;;;;;;;35.97;22.33;;;3.50;99.90;;;;;;5047034;28;20200;-61
2021/11/03 01:19:37;;;;;;;35.30;22.00;;;3.50;99.90;;;;;;5035617;28;20212;-60
2021/11/03 01:22:05;;;;;;;33.50;20.47;;;3.40;99.90;;;;;;5037011;28;20271;-61
2021/11/03 01:24:34;;;;;;;35.07;21.00;;;3.40;99.90;;;;;;5041444;28;20228;-60
2021/11/03 01:27:02;;;;;;;39.77;20.93;;;3.40;99.90;;;;;;5040601;28;20212;-61
2021/11/03 01:29:30;;;;;;;34.33;20.83;;;3.30;99.90;;;;;;5049342;28;20790;-61
2021/11/03 01:32:01;;;;;;;31.43;19.67;;;3.30;99.90;;;;;;5038551;28;20181;-61
2021/11/03 01:34:31;;;;;;;34.20;21.20;;;3.20;99.90;;;;;;5045265;28;20201;-61
2021/11/03 01:36:59;;;;;;;34.20;18.70;;;3.20;99.90;;;;;;5052087;28;20258;-61
2021/11/03 01:39:29;;;;;;;28.17;19.23;;;3.20;99.90;;;;;;5049550;28;20225;-61
2021/11/03 01:41:57;;;;;;;34.97;20.93;;;3.10;99.90;;;;;;5040366;28;20267;-61
2021/11/03 01:44:25;;;;;;;34.47;20.60;;;3.10;99.90;;;;;;5045014;28;20286;-61
2021/11/03 01:46:57;;;;;;;33.87;19.70;;;3.20;99.90;;;;;;5050655;28;20204;-61
2021/11/03 01:49:27;;;;;;;35.03;19.83;;;3.10;99.90;;;;;;5041691;28;20211;-61
2021/11/03 01:52:01;;;;;;;33.10;20.80;;;3.10;99.90;;;;;;5047279;28;20237;-61
2021/11/03 01:54:37;;;;;;;35.80;21.03;;;3.00;99.90;;;;;;5039282;28;20630;-60
2021/11/03 01:57:08;;;;;;;32.03;20.20;;;2.90;99.90;;;;;;5046418;28;20219;-60
2021/11/03 01:59:41;;;;;;;36.30;20.67;;;2.90;99.90;;;;;;5043178;28;20194;-60
2021/11/03 02:02:11;;;;;;;34.30;21.60;;;2.90;99.90;;;;;;5042329;28;20283;-61
2021/11/03 02:04:40;;;;;;;35.23;21.00;;;2.90;99.90;;;;;;5045905;28;20189;-60
2021/11/03 02:07:16;;;;;;;34.43;21.23;;;2.90;99.90;;;;;;5043718;28;20224;-60
2021/11/03 02:09:45;;;;;;;32.83;20.80;;;2.90;99.90;;;;;;5042862;28;20196;-60
2021/11/03 02:12:17;;;;;;;37.90;22.77;;;2.80;99.90;;;;;;5039032;28;20719;-61
2021/11/03 02:14:46;;;;;;;33.53;20.03;;;2.80;99.90;;;;;;5041743;28;21625;-60
2021/11/03 02:17:15;;;;;;;39.60;21.23;;;2.80;99.90;;;;;;5031992;28;20189;-61
2021/11/03 02:19:44;;;;;;;34.13;20.10;;;2.90;99.90;;;;;;5046298;28;20257;-61
2021/11/03 02:22:20;;;;;;;32.47;19.60;;;2.90;99.90;;;;;;5046456;28;20288;-61
2021/11/03 02:24:56;;;;;;;35.40;20.67;;;2.90;99.90;;;;;;5041840;28;20856;-61
2021/11/03 02:27:28;;;;;;;31.03;20.17;;;3.00;99.90;;;;;;5042024;28;20228;-61
2021/11/03 02:29:57;;;;;;;33.77;19.93;;;2.90;99.90;;;;;;5042443;28;20285;-60
2021/11/03 02:32:30;;;;;;;39.40;21.40;;;2.90;99.90;;;;;;5042355;28;20200;-60
2021/11/03 02:34:58;;;;;;;32.80;20.70;;;2.90;99.90;;;;;;5039636;28;20250;-60
2021/11/03 02:37:43;;;;;;;35.37;21.67;;;2.90;99.90;;;;;;5047565;28;20300;-61
2021/11/03 02:40:40;;;;;;;39.70;22.40;;;2.90;99.90;;;;;;5039792;28;21592;-60
2021/11/03 02:43:22;;;;;;;37.70;22.13;;;2.90;99.90;;;;;;5035533;28;20225;-61
2021/11/03 02:45:53;;;;;;;39.23;22.27;;;3.00;99.90;;;;;;5041449;28;20204;-61
2021/11/03 02:48:23;;;;;;;36.70;21.20;;;3.10;99.90;;;;;;5041034;28;20757;-60
2021/11/03 02:51:09;;;;;;;35.13;21.00;;;3.10;99.90;;;;;;5044383;28;20710;-61
2021/11/03 02:53:41;;;;;;;39.77;22.13;;;3.10;99.90;;;;;;5042398;28;20595;-61
2021/11/03 02:56:10;;;;;;;36.63;21.17;;;3.10;99.90;;;;;;5039759;28;20196;-61
2021/11/03 02:58:41;;;;;;;37.93;21.50;;;3.20;99.90;;;;;;5045143;28;20727;-60
2021/11/03 03:01:23;;;;;;;31.60;19.97;;;3.20;99.90;;;;;;5037405;28;20190;-61
2021/11/03 03:03:52;;;;;;;30.23;19.93;;;3.20;99.90;;;;;;5043784;28;20217;-61
2021/11/03 03:06:24;;;;;;;31.47;19.17;;;3.20;99.90;;;;;;5037528;28;20255;-61
2021/11/03 03:08:54;;;;;;;38.83;21.47;;;3.20;99.90;;;;;;5038760;28;20221;-61
2021/11/03 03:11:24;;;;;;;34.13;20.50;;;3.30;99.90;;;;;;5035276;28;20606;-60
2021/11/03 03:13:55;;;;;;;33.87;20.33;;;3.30;99.90;;;;;;5038979;28;20217;-61
2021/11/03 03:16:23;;;;;;;36.47;20.60;;;3.30;99.90;;;;;;5041073;28;20240;-61
2021/11/03 03:18:51;;;;;;;34.67;21.87;;;3.30;99.90;;;;;;5042985;28;20193;-60
2021/11/03 03:21:22;;;;;;;32.63;19.90;;;3.30;99.90;;;;;;5037718;28;20232;-61
2021/11/03 03:23:56;;;;;;;39.43;21.47;;;3.30;99.90;;;;;;5041665;28;20223;-61
2021/11/03 03:26:25;;;;;;;32.40;19.20;;;3.40;99.90;;;;;;5040253;28;20255;-61
2021/11/03 03:28:56;;;;;;;32.90;19.83;;;3.40;99.90;;;;;;5042469;28;20563;-61
2021/11/03 03:31:27;;;;;;;33.03;20.23;;;3.40;99.90;;;;;;5047218;28;20200;-61
2021/11/03 03:33:59;;;;;;;39.53;22.23;;;3.40;99.90;;;;;;5043169;28;20193;-61
2021/11/03 03:36:28;;;;;;;32.87;21.33;;;3.40;99.90;;;;;;5039282;28;21000;-61
2021/11/03 03:38:57;;;;;;;35.07;20.77;;;3.50;99.90;;;;;;5042290;28;20220;-61
2021/11/03 03:41:27;;;;;;;36.97;21.80;;;3.50;99.90;;;;;;5037714;28;20197;-60
2021/11/03 03:43:57;;;;;;;39.70;22.57;;;3.50;99.90;;;;;;5042980;28;20268;-61
2021/11/03 03:46:26;;;;;;;37.80;22.63;;;3.60;99.90;;;;;;5036299;28;20927;-61
2021/11/03 03:48:55;;;;;;;39.50;23.60;;;3.60;99.90;;;;;;5042659;28;20196;-61
2021/11/03 03:51:24;;;;;;;47.53;24.87;;;3.60;99.90;;;;;;5043580;28;20284;-61
2021/11/03 03:53:53;;;;;;;47.93;24.33;;;3.70;99.90;;;;;;5045149;28;20547;-61
2021/11/03 03:56:22;;;;;;;35.70;21.40;;;3.70;99.90;;;;;;5045741;28;20317;-61
2021/11/03 03:58:52;;;;;;;40.73;22.53;;;3.80;99.90;;;;;;5039346;28;20221;-61
2021/11/03 04:01:25;;;;;;;47.90;25.20;;;3.80;99.90;;;;;;5037028;28;20282;-60
2021/11/03 04:03:54;;;;;;;44.57;24.60;;;3.80;99.90;;;;;;5044543;28;20209;-60
2021/11/03 04:06:23;;;;;;;38.90;21.53;;;3.90;99.90;;;;;;5038330;28;20201;-61
2021/11/03 04:08:51;;;;;;;42.17;23.50;;;3.90;99.90;;;;;;5042389;28;20272;-61
2021/11/03 04:11:20;;;;;;;46.50;23.47;;;3.90;99.90;;;;;;5036308;28;20270;-61
2021/11/03 04:13:49;;;;;;;47.07;24.30;;;4.00;99.90;;;;;;5042000;28;20189;-61
2021/11/03 04:16:18;;;;;;;53.97;24.53;;;4.00;99.90;;;;;;5033614;28;20189;-61
2021/11/03 04:18:47;;;;;;;47.40;23.27;;;4.10;99.90;;;;;;5034568;28;20212;-61
2021/11/03 04:21:16;;;;;;;45.27;23.37;;;4.00;99.90;;;;;;5034857;28;20193;-61
2021/11/03 04:23:45;;;;;;;42.93;23.23;;;4.00;99.90;;;;;;5037374;28;20221;-61
2021/11/03 04:26:22;;;;;;;47.37;24.20;;;4.00;99.90;;;;;;5040841;28;20854;-61
2021/11/03 04:28:51;;;;;;;49.40;23.47;;;4.00;99.90;;;;;;5042548;28;20196;-61
2021/11/03 04:31:20;;;;;;;35.60;21.53;;;4.00;99.90;;;;;;5040291;28;20205;-61
2021/11/03 04:33:54;;;;;;;38.03;21.77;;;3.90;99.90;;;;;;5037788;28;20228;-61
2021/11/03 04:36:24;;;;;;;41.00;23.07;;;3.90;99.90;;;;;;5034121;28;21288;-61
2021/11/03 04:38:54;;;;;;;47.10;22.63;;;3.90;99.90;;;;;;5035103;28;20225;-61
2021/11/03 04:41:25;;;;;;;41.77;22.43;;;3.90;99.90;;;;;;5039214;28;20595;-61
2021/11/03 04:43:53;;;;;;;44.43;22.27;;;3.90;99.90;;;;;;5036317;28;20249;-61
2021/11/03 04:46:21;;;;;;;42.77;22.60;;;3.80;99.90;;;;;;5038630;28;20192;-61
2021/11/03 04:48:50;;;;;;;42.93;22.87;;;3.80;99.90;;;;;;5043841;28;20275;-61
2021/11/03 04:51:20;;;;;;;47.07;23.73;;;3.90;99.90;;;;;;5035288;28;20205;-61
2021/11/03 04:53:49;;;;;;;40.47;21.97;;;3.80;99.90;;;;;;5039684;28;20575;-61
2021/11/03 04:56:21;;;;;;;41.50;22.53;;;3.80;99.90;;;;;;5034737;28;20205;-61
2021/11/03 04:58:51;;;;;;;46.37;24.43;;;3.70;99.90;;;;;;5036988;28;20710;-61
2021/11/03 05:01:21;;;;;;;42.87;23.50;;;3.70;99.90;;;;;;5037256;28;20250;-61
2021/11/03 05:03:50;;;;;;;47.03;24.70;;;3.60;99.90;;;;;;5032167;28;20594;-61
2021/11/03 05:06:25;;;;;;;43.47;23.10;;;3.60;99.90;;;;;;5043113;28;20613;-60
2021/11/03 05:08:55;;;;;;;45.77;24.33;;;3.60;99.90;;;;;;5032243;28;20287;-61
2021/11/03 05:11:25;;;;;;;46.73;23.10;;;3.50;99.90;;;;;;5040028;28;20192;-61
2021/11/03 05:13:53;;;;;;;46.30;23.83;;;3.50;99.90;;;;;;5039819;28;20242;-61
2021/11/03 05:16:23;;;;;;;42.43;23.63;;;3.50;99.90;;;;;;5037591;28;20213;-61
2021/11/03 05:18:53;;;;;;;47.57;24.57;;;3.40;99.90;;;;;;5035027;28;20188;-61
2021/11/03 05:21:22;;;;;;;48.47;23.13;;;3.40;99.90;;;;;;5043410;28;20235;-61
2021/11/03 05:23:51;;;;;;;49.30;24.83;;;3.40;99.90;;;;;;5040556;28;20298;-61
2021/11/03 05:26:22;;;;;;;45.40;23.70;;;3.30;99.90;;;;;;5039606;28;20225;-62
2021/11/03 05:28:54;;;;;;;47.57;23.63;;;3.30;99.90;;;;;;5031820;28;20320;-61
2021/11/03 05:31:23;;;;;;;41.70;22.80;;;3.30;99.90;;;;;;5037217;28;20207;-61
2021/11/03 05:33:54;;;;;;;40.43;22.40;;;3.30;99.90;;;;;;5036308;28;20545;-61
2021/11/03 05:36:26;;;;;;;51.13;23.63;;;3.30;99.90;;;;;;5061950;28;20246;-61
2021/11/03 05:38:56;;;;;;;41.20;22.37;;;3.30;99.90;;;;;;5032457;28;20189;-61
2021/11/03 05:41:24;;;;;;;45.97;23.37;;;3.30;99.90;;;;;;5041150;28;20202;-61
2021/11/03 05:43:53;;;;;;;47.23;24.30;;;3.30;99.90;;;;;;5033758;28;20275;-61
2021/11/03 05:46:38;;;;;;;39.50;21.67;;;3.30;99.90;;;;;;5040524;28;20252;-61
2021/11/03 05:49:09;;;;;;;48.40;22.57;;;3.30;99.90;;;;;;5040284;28;20217;-61
2021/11/03 05:51:40;;;;;;;43.30;22.77;;;3.20;99.90;;;;;;5039742;28;20246;-61
2021/11/03 05:54:09;;;;;;;37.37;20.37;;;3.20;99.90;;;;;;5037433;28;20227;-61
2021/11/03 05:56:37;;;;;;;38.87;21.33;;;3.20;99.90;;;;;;5041503;28;20231;-61
2021/11/03 05:59:07;;;;;;;45.63;24.23;;;3.10;99.90;;;;;;5041572;28;20224;-61
2021/11/03 06:01:35;;;;;;;46.90;24.20;;;3.10;99.90;;;;;;5032228;28;20189;-61
2021/11/03 06:04:04;;;;;;;44.07;22.97;;;3.10;99.90;;;;;;5037338;28;20618;-61
2021/11/03 06:06:33;;;;;;;45.90;22.30;;;3.10;99.90;;;;;;5041822;28;20225;-61
2021/11/03 06:09:04;;;;;;;44.53;21.80;;;3.10;99.90;;;;;;5048162;28;20228;-61
2021/11/03 06:11:36;;;;;;;48.27;22.77;;;3.10;99.90;;;;;;5041911;28;20314;-61
2021/11/03 06:14:05;;;;;;;44.30;21.53;;;3.10;99.90;;;;;;5043428;28;20655;-61
2021/11/03 06:16:34;;;;;;;38.43;21.00;;;3.20;99.90;;;;;;5040238;28;20262;-61
2021/11/03 06:19:03;;;;;;;43.63;22.30;;;3.20;99.90;;;;;;5043842;28;20231;-61
2021/11/03 06:21:32;;;;;;;44.50;22.37;;;3.20;99.90;;;;;;5038345;28;20220;-61
2021/11/03 06:24:01;;;;;;;45.90;22.43;;;3.20;99.90;;;;;;5039319;28;20683;-61
2021/11/03 06:26:31;;;;;;;42.90;22.30;;;3.20;99.90;;;;;;5044563;28;20208;-61
2021/11/03 06:29:00;;;;;;;42.83;21.60;;;3.30;99.90;;;;;;5041825;28;20193;-61
2021/11/03 06:31:28;;;;;;;44.60;23.47;;;3.30;99.90;;;;;;5039219;28;20200;-61
2021/11/03 06:33:57;;;;;;;45.23;24.30;;;3.40;99.90;;;;;;5045957;28;20796;-61
2021/11/03 06:36:26;;;;;;;43.40;23.60;;;3.40;99.90;;;;;;5044298;28;20352;-61
2021/11/03 06:38:54;;;;;;;48.73;25.17;;;3.50;99.90;;;;;;5038820;28;20266;-61
2021/11/03 06:41:25;;;;;;;47.90;24.50;;;3.50;99.90;;;;;;5043856;28;20199;-61
2021/11/03 06:43:55;;;;;;;47.17;24.33;;;3.50;99.90;;;;;;5042150;28;20634;-61
2021/11/03 06:46:24;;;;;;;45.87;25.27;;;3.50;99.90;;;;;;5039892;28;20605;-61
2021/11/03 06:48:52;;;;;;;47.17;25.47;;;3.50;99.90;;;;;;5040306;28;20193;-61
2021/11/03 06:51:21;;;;;;;50.53;25.70;;;3.50;99.90;;;;;;5039376;28;20703;-61
2021/11/03 06:53:50;;;;;;;51.47;25.43;;;3.50;99.90;;;;;;5038985;28;20607;-61
2021/11/03 06:56:18;;;;;;;49.13;24.83;;;3.50;99.90;;;;;;5041869;28;20616;-60
2021/11/03 06:58:47;;;;;;;40.90;22.53;;;3.40;99.90;;;;;;5052049;28;20577;-61
2021/11/03 07:01:16;;;;;;;53.23;26.00;;;3.40;99.90;;;;;;5040325;28;20207;-61
2021/11/03 07:03:49;;;;;;;52.20;25.33;;;3.40;99.90;;;;;;5042706;28;20193;-61
2021/11/03 07:06:18;;;;;;;57.00;26.23;;;3.40;99.90;;;;;;5045109;28;20208;-61
2021/11/03 07:08:47;;;;;;;48.00;25.63;;;3.40;99.90;;;;;;5033743;28;20201;-61
2021/11/03 07:11:15;;;;;;;53.63;26.13;;;3.40;99.90;;;;;;5041989;28;20189;-61
2021/11/03 07:13:45;;;;;;;49.63;24.60;;;3.40;99.90;;;;;;5035770;28;20197;-59
2021/11/03 07:16:14;;;;;;;54.50;26.50;;;3.40;99.90;;;;;;5041362;28;20243;-61
2021/11/03 07:18:44;;;;;;;56.30;26.73;;;3.40;99.90;;;;;;5031194;28;20193;-61
2021/11/03 07:21:13;;;;;;;51.10;26.63;;;3.40;99.90;;;;;;5043244;28;20193;-61
2021/11/03 07:23:41;;;;;;;55.20;28.60;;;3.40;99.90;;;;;;5034221;28;20189;-61
2021/11/03 07:26:11;;;;;;;66.43;30.17;;;3.30;99.90;;;;;;5033203;28;20209;-61
2021/11/03 07:28:40;;;;;;;61.83;28.90;;;3.30;99.90;;;;;;5038020;28;20220;-61
2021/11/03 07:31:11;;;;;;;53.73;26.83;;;3.40;99.90;;;;;;5039832;28;20194;-61
2021/11/03 07:33:40;;;;;;;53.87;26.77;;;3.40;99.90;;;;;;5031705;28;20276;-61
2021/11/03 07:36:15;;;;;;;55.87;28.17;;;3.40;99.90;;;;;;5039279;28;20545;-61
2021/11/03 07:38:45;;;;;;;56.37;27.17;;;3.40;99.90;;;;;;5034876;28;20256;-62
2021/11/03 07:41:32;;;;;;;54.70;27.43;;;3.40;99.90;;;;;;5043802;28;20562;-61
2021/11/03 07:44:01;;;;;;;51.20;25.53;;;3.50;99.90;;;;;;5032890;28;20291;-61
2021/11/03 07:46:29;;;;;;;52.87;26.97;;;3.50;99.90;;;;;;5033648;28;20674;-61
2021/11/03 07:48:58;;;;;;;48.80;25.40;;;3.50;99.90;;;;;;5036258;28;20775;-61
2021/11/03 07:51:29;;;;;;;66.87;29.43;;;3.60;99.90;;;;;;5037676;28;20686;-61
2021/11/03 07:53:59;;;;;;;66.10;31.23;;;3.70;99.90;;;;;;5036571;28;20276;-61
2021/11/03 07:56:31;;;;;;;77.77;32.73;;;3.70;99.90;;;;;;5026745;28;20563;-61
2021/11/03 07:58:59;;;;;;;71.63;32.77;;;3.80;99.90;;;;;;5040976;28;20211;-61
2021/11/03 08:01:28;;;;;;;59.43;30.03;;;3.90;99.90;;;;;;5034679;28;20732;-61
2021/11/03 08:03:57;;;;;;;57.50;28.63;;;3.90;99.90;;;;;;5036920;28;20555;-61
2021/11/03 08:06:27;;;;;;;65.87;31.20;;;4.00;99.90;;;;;;5033790;28;20213;-61
2021/11/03 08:09:04;;;;;;;51.50;27.00;;;4.10;99.90;;;;;;5040487;28;20181;-61
2021/11/03 08:11:37;;;;;;;71.20;32.50;;;4.10;99.90;;;;;;5058961;28;20204;-61
2021/11/03 08:14:05;;;;;;;64.60;28.23;;;4.10;99.90;;;;;;5045747;28;20319;-61
2021/11/03 08:16:42;;;;;;;52.30;27.00;;;4.20;99.90;;;;;;5039785;28;20615;-62
2021/11/03 08:19:11;;;;;;;46.40;25.57;;;4.30;99.90;;;;;;5036038;28;20203;-62
2021/11/03 08:21:40;;;;;;;61.00;29.10;;;4.40;99.90;;;;;;5033349;28;20625;-61
2021/11/03 08:24:10;;;;;;;62.80;29.63;;;4.40;99.90;;;;;;5031153;28;20209;-62
2021/11/03 08:26:39;;;;;;;77.33;33.17;;;4.50;99.90;;;;;;5044638;28;20715;-61
2021/11/03 08:29:08;;;;;;;59.10;28.53;;;4.50;99.90;;;;;;5042736;28;20546;-61
2021/11/03 08:31:38;;;;;;;51.20;25.63;;;4.60;99.90;;;;;;5040000;28;20574;-61
2021/11/03 08:34:08;;;;;;;43.43;25.83;;;4.60;99.90;;;;;;5033738;28;20243;-61
2021/11/03 08:36:37;;;;;;;50.03;25.97;;;4.60;99.90;;;;;;5037518;28;20703;-61
2021/11/03 08:39:08;;;;;;;42.57;23.70;;;4.60;99.90;;;;;;5031273;28;20198;-61
2021/11/03 08:41:38;;;;;;;51.27;26.30;;;4.60;99.90;;;;;;5032834;28;20575;-61
2021/11/03 08:44:07;;;;;;;47.83;24.67;;;4.70;99.90;;;;;;5036010;28;20314;-61
2021/11/03 08:46:36;;;;;;;57.63;29.50;;;4.70;99.90;;;;;;5035005;28;20676;-61
2021/11/03 08:49:06;;;;;;;55.60;28.50;;;4.60;99.90;;;;;;5042397;28;20197;-61
2021/11/03 08:51:35;;;;;;;46.87;26.63;;;4.60;99.90;;;;;;5041617;28;20201;-61
2021/11/03 08:54:06;;;;;;;46.13;26.27;;;4.60;99.90;;;;;;5033388;28;20204;-61
2021/11/03 08:56:36;;;;;;;41.47;23.77;;;4.50;99.90;;;;;;5039774;28;20285;-61
2021/11/03 08:59:07;;;;;;;34.93;22.93;;;4.50;99.90;;;;;;5032376;28;20250;-61
2021/11/03 09:01:36;;;;;;;39.40;22.87;;;4.50;99.90;;;;;;5041728;28;20210;-61
2021/11/03 09:04:05;;;;;;;36.90;23.60;;;4.50;99.90;;;;;;5043723;28;20205;-61
2021/11/03 09:06:38;;;;;;;41.33;24.60;;;4.50;99.90;;;;;;5042557;28;20212;-61
2021/11/03 09:09:07;;;;;;;42.73;24.00;;;4.50;99.90;;;;;;5036371;28;20201;-62
2021/11/03 09:11:35;;;;;;;50.10;25.33;;;4.50;99.90;;;;;;5038493;28;20205;-61
2021/11/03 09:14:08;;;;;;;47.00;25.33;;;4.60;99.90;;;;;;5032096;28;20277;-61
2021/11/03 09:16:37;;;;;;;52.90;24.83;;;4.80;99.90;;;;;;5029508;28;20862;-61
2021/11/03 09:19:05;;;;;;;67.53;25.40;;;5.00;99.90;;;;;;5036100;28;20660;-61
2021/11/03 09:21:34;;;;;;;52.77;23.77;;;5.20;99.90;;;;;;5032654;28;20603;-59
2021/11/03 09:24:02;;;;;;;42.00;21.80;;;5.30;99.90;;;;;;5030991;28;20288;-61
2021/11/03 09:26:31;;;;;;;44.20;22.90;;;5.50;99.90;;;;;;5028217;28;20228;-61
2021/11/03 09:29:01;;;;;;;44.53;22.97;;;5.60;99.90;;;;;;5033971;28;20232;-62
2021/11/03 09:31:31;;;;;;;39.67;21.73;;;5.70;99.90;;;;;;5038322;28;20209;-61
2021/11/03 09:34:01;;;;;;;45.73;22.53;;;5.90;99.90;;;;;;5035572;28;20205;-61
2021/11/03 09:36:32;;;;;;;40.13;22.13;;;6.00;99.90;;;;;;5040671;28;20811;-62
2021/11/03 09:39:01;;;;;;;39.93;21.93;;;6.20;99.90;;;;;;5034287;28;20258;-62
2021/11/03 09:41:45;;;;;;;47.53;21.80;;;6.30;99.90;;;;;;5040411;28;20207;-61
2021/11/03 09:44:19;;;;;;;40.20;21.80;;;6.30;99.90;;;;;;5038780;28;20312;-62
2021/11/03 09:46:55;;;;;;;41.77;23.40;;;6.20;99.90;;;;;;5046537;28;20228;-62
2021/11/03 09:49:32;;;;;;;45.80;22.87;;;6.20;99.90;;;;;;5039352;28;20686;-61
2021/11/03 09:52:12;;;;;;;43.23;22.93;;;6.20;99.90;;;;;;5042464;28;20204;-62
2021/11/03 09:54:43;;;;;;;46.17;24.60;;;6.30;99.90;;;;;;5040650;28;20635;-62
2021/11/03 09:57:20;;;;;;;46.03;24.67;;;6.20;99.90;;;;;;5040302;28;20239;-62
2021/11/03 10:00:01;;;;;;;50.37;24.40;;;6.20;99.90;;;;;;5036033;28;20204;-61
2021/11/03 10:02:43;;;;;;;51.00;26.10;;;6.20;99.90;;;;;;5045188;28;20228;-62
2021/11/03 10:05:21;;;;;;;52.13;27.00;;;6.20;99.90;;;;;;5042243;28;20258;-62
2021/11/03 10:07:54;;;;;;;50.50;26.73;;;6.20;99.90;;;;;;5042839;28;20244;-61
2021/11/03 10:10:32;;;;;;;50.87;28.47;;;6.20;99.90;;;;;;5044166;28;20205;-61
2021/11/03 10:13:04;;;;;;;56.50;28.73;;;6.20;99.90;;;;;;5038267;28;20228;-62
2021/11/03 10:15:32;;;;;;;55.53;29.50;;;6.20;99.90;;;;;;5040005;28;20208;-61
2021/11/03 10:18:12;;;;;;;56.63;28.83;;;6.20;99.90;;;;;;5039929;28;21027;-61
2021/11/03 10:20:44;;;;;;;59.63;29.20;;;6.30;99.90;;;;;;5041469;28;20219;-62
2021/11/03 10:23:20;;;;;;;51.97;27.13;;;6.30;99.90;;;;;;5041770;28;20208;-62
2021/11/03 10:25:58;;;;;;;47.53;27.03;;;6.40;99.90;;;;;;5041162;28;20228;-62
2021/11/03 10:28:36;;;;;;;49.43;28.53;;;6.50;99.90;;;;;;5043841;28;20220;-62
2021/11/03 10:31:08;;;;;;;48.07;29.10;;;6.60;99.90;;;;;;5040267;28;20257;-62
2021/11/03 10:33:43;;;;;;;53.93;29.07;;;6.70;99.90;;;;;;5046496;28;20284;-62
2021/11/03 10:36:16;;;;;;;47.03;27.63;;;6.80;99.90;;;;;;5041621;28;20201;-62
2021/11/03 10:38:49;;;;;;;51.33;28.67;;;6.90;99.90;;;;;;5043620;28;20200;-61
2021/11/03 10:41:26;;;;;;;47.57;28.53;;;7.10;99.90;;;;;;5043329;28;20213;-62
2021/11/03 10:44:02;;;;;;;46.60;26.97;;;7.30;99.90;;;;;;5037152;28;20235;-62
2021/11/03 10:46:33;;;;;;;51.40;27.53;;;7.40;99.90;;;;;;5037859;28;20207;-62
2021/11/03 10:52:12;;;;;;;47.17;27.03;;;7.20;99.90;;;;;;5041716;28;20208;-61
2021/11/03 10:54:46;;;;;;;45.40;26.80;;;7.20;99.90;;;;;;5040910;28;20410;-62
2021/11/03 10:57:23;;;;;;;43.60;25.70;;;7.40;99.90;;;;;;5042571;28;20694;-62
2021/11/03 10:59:56;;;;;;;41.03;25.07;;;7.60;99.90;;;;;;5032826;28;20205;-61
2021/11/03 11:02:28;;;;;;;43.07;25.83;;;7.90;99.90;;;;;;5040706;28;20613;-62
2021/11/03 11:05:03;;;;;;;44.47;25.73;;;8.10;99.90;;;;;;5033582;28;20671;-62
2021/11/03 11:07:35;;;;;;;36.70;23.83;;;8.30;99.90;;;;;;5037837;28;20217;-62
2021/11/03 11:10:16;;;;;;;34.63;22.47;;;8.50;99.90;;;;;;5036304;28;20258;-62
2021/11/03 11:12:50;;;;;;;33.70;21.50;;;8.60;99.90;;;;;;5037993;28;20205;-63
2021/11/03 11:15:25;;;;;;;28.00;19.93;;;8.80;99.90;;;;;;5036126;28;20641;-63
2021/11/03 11:18:00;;;;;;;9.80;8.77;;;9.00;99.90;;;;;;5039292;28;20223;-63
2021/11/03 11:20:34;;;;;;;30.97;19.53;;;9.20;99.90;;;;;;5040887;28;20236;-63
2021/11/03 11:23:15;;;;;;;28.93;17.40;;;9.50;99.90;;;;;;5042181;28;20262;-63
2021/11/03 11:25:53;;;;;;;48.70;44.53;;;9.60;99.90;;;;;;5039512;28;20555;-63
2021/11/03 11:28:45;;;;;;;45.50;42.13;;;9.70;99.90;;;;;;5040275;28;20290;-62
2021/11/03 11:31:31;;;;;;;160.27;88.53;;;9.80;99.90;;;;;;5038812;28;20263;-63
2021/11/03 11:34:10;;;;;;;124.10;114.10;;;9.90;99.90;;;;;;5038531;28;20284;-63
2021/11/03 11:36:45;;;;;;;18.40;13.73;;;10.10;99.90;;;;;;5038884;28;20288;-63
2021/11/03 11:39:27;;;;;;;17.43;13.80;;;10.50;99.90;;;;;;5042251;28;20228;-63
2021/11/03 11:42:05;;;;;;;955.53;203.37;;;10.70;99.90;;;;;;5035902;28;20246;-63
2021/11/03 11:44:36;;;;;;;263.03;235.73;;;10.90;99.90;;;;;;5040060;28;20969;-63
2021/11/03 11:47:08;;;;;;;17.63;12.67;;;11.20;99.90;;;;;;5039506;28;20228;-63
2021/11/03 11:49:41;;;;;;;20.77;12.10;;;11.50;99.90;;;;;;5036679;28;20225;-63
2021/11/03 11:52:19;;;;;;;16.20;12.67;;;11.80;99.90;;;;;;5035256;28;20251;-63
2021/11/03 11:55:05;;;;;;;284.97;88.43;;;12.00;99.90;;;;;;5034108;28;20203;-62
2021/11/03 11:57:36;;;;;;;16.27;12.07;;;12.10;99.90;;;;;;5034287;28;20224;-63
2021/11/03 12:00:26;;;;;;;131.67;119.33;;;12.40;99.90;;;;;;5036044;28;20251;-63
2021/11/03 12:03:26;;;;;;;139.40;54.83;;;12.50;99.90;;;;;;5037327;28;20243;-63
2021/11/03 12:06:11;;;;;;;13.10;10.47;;;12.50;99.90;;;;;;5036799;28;20966;-63
2021/11/03 12:09:01;;;;;;;14.33;11.03;;;12.80;99.90;;;;;;5039011;28;20755;-63
2021/11/03 12:11:46;;;;;;;17.63;11.87;;;13.20;99.90;;;;;;5032691;28;20227;-63
2021/11/03 12:14:33;;;;;;;14.27;11.67;;;13.30;99.90;;;;;;5042354;28;20278;-63
2021/11/03 12:17:18;;;;;;;14.93;10.83;;;13.40;99.90;;;;;;5034281;28;20197;-63
2021/11/03 12:19:57;;;;;;;17.33;11.23;;;13.70;99.90;;;;;;5036687;28;20648;-63
2021/11/03 12:22:49;;;;;;;17.13;11.70;;;13.80;99.90;;;;;;5038476;28;20196;-63
2021/11/03 12:25:43;;;;;;;15.87;10.20;;;13.70;99.90;;;;;;5036185;28;20208;-63
2021/11/03 12:28:43;;;;;;;13.40;10.30;;;13.80;99.90;;;;;;5033556;28;20560;-63
2021/11/03 12:31:27;;;;;;;14.53;10.50;;;13.80;99.90;;;;;;5041758;28;20257;-63
2021/11/03 12:34:20;;;;;;;15.57;9.93;;;14.00;99.90;;;;;;5041487;28;20204;-63
2021/11/03 12:37:02;;;;;;;12.53;10.07;;;13.90;99.90;;;;;;5036235;28;20573;-63
2021/11/03 12:40:05;;;;;;;11.17;9.43;;;13.80;99.90;;;;;;5038316;28;20203;-63
2021/11/03 12:42:49;;;;;;;12.33;9.10;;;14.10;99.90;;;;;;5054776;28;20726;-63
2021/11/03 12:45:21;;;;;;;13.00;8.43;;;14.00;99.90;;;;;;5038672;28;20236;-63
2021/11/03 12:47:53;;;;;;;9.80;8.13;;;13.80;99.90;;;;;;5038257;28;20207;-63
2021/11/03 12:50:25;;;;;;;15.13;8.80;;;13.90;99.90;;;;;;5042540;28;20196;-63
2021/11/03 12:53:05;;;;;;;14.97;9.87;;;13.70;99.90;;;;;;5044924;28;20193;-63
2021/11/03 12:55:42;;;;;;;16.53;10.00;;;13.60;99.90;;;;;;5040536;28;20241;-63
2021/11/03 12:58:28;;;;;;;12.53;9.60;;;13.10;99.90;;;;;;5037609;28;20188;-63
2021/11/03 13:00:57;;;;;;;11.83;9.20;;;13.10;99.90;;;;;;5040288;28;20189;-63
2021/11/03 13:03:32;;;;;;;15.40;9.80;;;12.80;99.90;;;;;;5037055;28;20199;-62
2021/11/03 13:06:02;;;;;;;16.13;9.80;;;13.00;99.90;;;;;;5035027;28;20588;-62